createdAt,value
2022-10-17T00:00:57.317Z,-23621.97
2022-10-17T00:03:00.044Z,-23620.09
2022-10-17T00:05:04.576Z,-23618.97
2022-10-17T00:07:07.219Z,-23618.19
2022-10-17T00:09:10.274Z,-23618.03
2022-10-17T00:11:15.661Z,-23623.06
2022-10-17T00:13:18.283Z,-23621.03
2022-10-17T00:15:22.185Z,-23616.75
2022-10-17T00:17:25.208Z,-23616.44
2022-10-17T00:19:28.086Z,-23616.91
2022-10-17T00:21:32.147Z,-23617.53
2022-10-17T00:23:34.978Z,-23618.19
2022-10-17T00:25:37.691Z,-23617.22
2022-10-17T00:27:42.364Z,-23616.28
2022-10-17T00:29:49.303Z,-23615.66
2022-10-17T00:31:55.639Z,-23613.75
2022-10-17T00:33:58.293Z,-23614.72
2022-10-17T00:36:07.263Z,-23611.88
2022-10-17T00:38:11.248Z,-23612.50
2022-10-17T00:40:13.971Z,-23610.44
2022-10-17T00:42:17.129Z,-23611.53
2022-10-17T00:44:57.302Z,-23612.50
2022-10-17T00:47:01.831Z,-23612.34
2022-10-17T00:49:07.959Z,-23604.91
2022-10-17T00:51:10.670Z,-23610.91
2022-10-17T00:53:16.096Z,-23606.03
2022-10-17T00:55:22.724Z,-23610.91
2022-10-17T00:57:25.797Z,-23608.69
2022-10-17T00:59:29.899Z,-23606.03
2022-10-17T01:01:32.580Z,-23603.81
2022-10-17T01:03:35.294Z,-23603.03
2022-10-17T01:05:38.768Z,-23605.22
2022-10-17T01:07:42.748Z,-23606.19
2022-10-17T01:09:48.135Z,-23603.81
2022-10-17T01:11:56.806Z,-23603.66
2022-10-17T01:14:07.458Z,-23600.19
2022-10-17T01:16:15.268Z,-23599.22
2022-10-17T01:18:30.224Z,-23599.53
2022-10-17T01:21:11.403Z,-23600.50
2022-10-17T01:23:37.831Z,-23597.81
2022-10-17T01:25:53.206Z,-23596.38
2022-10-17T01:28:19.886Z,-23598.59
2022-10-17T01:30:37.725Z,-23600.81
2022-10-17T01:32:48.465Z,-23599.53
2022-10-17T01:34:56.787Z,-23598.28
2022-10-17T01:37:05.254Z,-23600.50
2022-10-17T01:39:16.066Z,-23601.75
2022-10-17T01:41:29.863Z,-23599.84
2022-10-17T01:43:38.292Z,-23596.38
2022-10-17T01:45:46.214Z,-23597.34
2022-10-17T01:47:53.949Z,-23597.34
2022-10-17T01:50:00.986Z,-23596.69
2022-10-17T01:52:08.662Z,-23596.38
2022-10-17T01:54:15.839Z,-23598.28
2022-10-17T01:56:21.531Z,-23597.97
2022-10-17T01:58:29.891Z,-23598.13
2022-10-17T02:00:33.967Z,-23598.91
2022-10-17T02:02:37.705Z,-23597.34
2022-10-17T02:04:42.555Z,-23598.13
2022-10-17T02:06:45.201Z,-23596.06
2022-10-17T02:08:49.584Z,-23597.19
2022-10-17T02:10:58.520Z,-23598.59
2022-10-17T02:13:09.994Z,-23597.50
2022-10-17T02:15:48.615Z,-23598.28
2022-10-17T02:18:06.922Z,-23600.66
2022-10-17T02:20:21.163Z,-23601.13
2022-10-17T02:22:33.941Z,-23599.53
2022-10-17T02:24:46.171Z,-23597.97
2022-10-17T02:26:56.369Z,-23597.97
2022-10-17T02:29:08.225Z,-23595.59
2022-10-17T02:31:16.542Z,-23596.69
2022-10-17T02:33:24.143Z,-23597.34
2022-10-17T02:35:31.913Z,-23597.50
2022-10-17T02:37:35.498Z,-23597.66
2022-10-17T02:39:39.540Z,-23597.50
2022-10-17T02:41:43.363Z,-23596.53
2022-10-17T02:43:48.254Z,-23596.38
2022-10-17T02:45:52.564Z,-23596.69
2022-10-17T02:48:00.099Z,-23599.22
2022-10-17T02:50:03.048Z,-23598.91
2022-10-17T02:52:13.223Z,-23597.00
2022-10-17T02:54:21.167Z,-23596.69
2022-10-17T02:56:26.871Z,-23597.50
2022-10-17T02:58:32.580Z,-23598.13
2022-10-17T03:00:36.114Z,-23598.91
2022-10-17T03:02:44.224Z,-23597.66
2022-10-17T03:04:47.820Z,-23596.38
2022-10-17T03:06:50.446Z,-23598.75
2022-10-17T03:08:54.432Z,-23598.91
2022-10-17T03:10:57.081Z,-23597.97
2022-10-17T03:12:59.771Z,-23605.06
2022-10-17T03:15:02.412Z,-23601.13
2022-10-17T03:17:05.002Z,-23602.22
2022-10-17T03:19:07.781Z,-23607.75
2022-10-17T03:21:10.406Z,-23613.28
2022-10-17T03:23:13.080Z,-23609.03
2022-10-17T03:25:17.275Z,-23613.44
2022-10-17T03:27:19.960Z,-23612.19
2022-10-17T03:29:22.896Z,-23612.50
2022-10-17T03:31:25.493Z,-23611.72
2022-10-17T03:33:29.279Z,-23606.19
2022-10-17T03:35:31.914Z,-23602.69
2022-10-17T03:37:34.561Z,-23599.06
2022-10-17T03:39:37.243Z,-23593.69
2022-10-17T03:41:41.171Z,-23594.81
2022-10-17T03:43:43.807Z,-23593.22
2022-10-17T03:45:46.397Z,-23589.91
2022-10-17T03:47:49.000Z,-23589.28
2022-10-17T03:49:53.461Z,-23588.63
2022-10-17T03:51:56.068Z,-23589.13
2022-10-17T03:53:58.651Z,-23588.50
2022-10-17T03:56:10.975Z,-23587.53
2022-10-17T03:58:14.973Z,-23585.66
2022-10-17T04:00:17.732Z,-23587.22
2022-10-17T04:02:20.368Z,-23583.13
2022-10-17T04:04:22.989Z,-23582.63
2022-10-17T04:06:25.670Z,-23581.69
2022-10-17T04:08:28.838Z,-23582.78
2022-10-17T04:10:31.445Z,-23582.97
2022-10-17T04:12:34.097Z,-23584.53
2022-10-17T04:14:38.551Z,-23578.06
2022-10-17T04:16:41.154Z,-23574.88
2022-10-17T04:18:44.113Z,-23574.41
2022-10-17T04:20:46.712Z,-23574.88
2022-10-17T04:22:49.391Z,-23572.69
2022-10-17T04:24:52.014Z,-23573.16
2022-10-17T04:26:54.987Z,-23570.78
2022-10-17T04:28:57.670Z,-23575.84
2022-10-17T04:31:03.365Z,-23568.88
2022-10-17T04:33:06.002Z,-23568.88
2022-10-17T04:35:09.539Z,-23573.00
2022-10-17T04:37:12.131Z,-23577.72
2022-10-17T04:39:14.923Z,-23579.31
2022-10-17T04:41:19.778Z,-23577.41
2022-10-17T04:43:22.386Z,-23572.84
2022-10-17T04:45:25.008Z,-23569.66
2022-10-17T04:47:28.991Z,-23572.19
2022-10-17T04:49:31.692Z,-23572.03
2022-10-17T04:51:34.321Z,-23568.09
2022-10-17T04:53:38.972Z,-23565.41
2022-10-17T04:55:41.580Z,-23568.56
2022-10-17T04:57:44.160Z,-23567.63
2022-10-17T04:59:46.754Z,-23573.47
2022-10-17T05:01:49.842Z,-23573.00
2022-10-17T05:03:54.497Z,-23567.31
2022-10-17T05:05:57.099Z,-23569.84
2022-10-17T05:07:59.721Z,-23570.63
2022-10-17T05:10:02.597Z,-23571.41
2022-10-17T05:12:08.014Z,-23573.31
2022-10-17T05:14:12.924Z,-23574.72
2022-10-17T05:16:15.543Z,-23567.31
2022-10-17T05:18:18.102Z,-23568.56
2022-10-17T05:20:22.059Z,-23571.72
2022-10-17T05:22:24.635Z,-23572.53
2022-10-17T05:24:27.210Z,-23575.22
2022-10-17T05:26:29.844Z,-23575.03
2022-10-17T05:28:32.461Z,-23572.03
2022-10-17T05:30:36.867Z,-23577.56
2022-10-17T05:32:40.397Z,-23577.91
2022-10-17T05:34:42.978Z,-23575.84
2022-10-17T05:36:46.999Z,-23577.09
2022-10-17T05:38:51.026Z,-23582.78
2022-10-17T05:40:57.667Z,-23579.31
2022-10-17T05:43:00.297Z,-23575.53
2022-10-17T05:45:02.900Z,-23582.16
2022-10-17T05:47:05.499Z,-23583.44
2022-10-17T05:49:14.929Z,-23579.31
2022-10-17T05:51:30.744Z,-23580.59
2022-10-17T05:53:36.804Z,-23583.44
2022-10-17T05:55:39.427Z,-23577.91
2022-10-17T05:57:42.076Z,-23575.69
2022-10-17T05:59:44.732Z,-23583.13
2022-10-17T06:01:47.419Z,-23570.78
2022-10-17T06:03:50.047Z,-23575.22
2022-10-17T06:05:52.822Z,-23578.84
2022-10-17T06:07:58.237Z,-23580.09
2022-10-17T06:10:06.052Z,-23580.91
2022-10-17T06:12:09.041Z,-23575.22
2022-10-17T06:14:11.711Z,-23579.63
2022-10-17T06:16:14.400Z,-23575.22
2022-10-17T06:18:17.048Z,-23574.25
2022-10-17T06:20:19.665Z,-23575.84
2022-10-17T06:22:22.288Z,-23575.84
2022-10-17T06:24:24.926Z,-23579.78
2022-10-17T06:26:28.892Z,-23573.63
2022-10-17T06:28:31.627Z,-23573.78
2022-10-17T06:30:34.289Z,-23576.47
2022-10-17T06:32:36.917Z,-23576.47
2022-10-17T06:34:39.570Z,-23574.25
2022-10-17T06:36:42.179Z,-23568.25
2022-10-17T06:38:44.793Z,-23567.63
2022-10-17T06:40:47.465Z,-23568.88
2022-10-17T06:42:51.425Z,-23569.84
2022-10-17T06:44:54.075Z,-23573.00
2022-10-17T06:46:56.809Z,-23572.03
2022-10-17T06:48:59.465Z,-23573.31
2022-10-17T06:51:02.623Z,-23575.22
2022-10-17T06:53:05.392Z,-23570.16
2022-10-17T06:55:08.504Z,-23571.41
2022-10-17T06:57:11.391Z,-23575.84
2022-10-17T06:59:16.564Z,-23578.38
2022-10-17T07:01:19.558Z,-23579.63
2022-10-17T07:03:22.192Z,-23583.44
2022-10-17T07:05:24.910Z,-23589.28
2022-10-17T07:07:27.859Z,-23587.53
2022-10-17T07:09:31.069Z,-23586.59
2022-10-17T07:11:35.277Z,-23584.22
2022-10-17T07:13:39.289Z,-23586.28
2022-10-17T07:15:44.161Z,-23590.53
2022-10-17T07:17:49.465Z,-23593.22
2022-10-17T07:19:52.146Z,-23597.00
2022-10-17T07:21:55.059Z,-23602.06
2022-10-17T07:23:57.757Z,-23604.28
2022-10-17T07:26:01.391Z,-23611.22
2022-10-17T07:28:04.207Z,-23618.81
2022-10-17T07:30:08.348Z,-23623.88
2022-10-17T07:32:12.326Z,-23627.81
2022-10-17T07:34:14.941Z,-23633.19
2022-10-17T07:36:18.124Z,-23639.34
2022-10-17T07:38:20.800Z,-23638.38
2022-10-17T07:40:23.480Z,-23643.13
2022-10-17T07:42:26.113Z,-23650.69
2022-10-17T07:44:28.738Z,-23646.59
2022-10-17T07:46:31.369Z,-23655.41
2022-10-17T07:48:35.379Z,-23658.88
2022-10-17T07:50:38.074Z,-23655.09
2022-10-17T07:52:43.091Z,-23654.78
2022-10-17T07:54:45.693Z,-23655.09
2022-10-17T07:56:50.694Z,-23663.00
2022-10-17T07:58:54.152Z,-23667.09
2022-10-17T08:00:56.926Z,-23672.13
2022-10-17T08:02:59.636Z,-23681.28
2022-10-17T08:05:03.673Z,-23689.78
2022-10-17T08:07:19.711Z,-23709.63
2022-10-17T08:09:24.425Z,-23710.56
2022-10-17T08:11:27.227Z,-23723.16
2022-10-17T08:13:29.832Z,-23719.22
2022-10-17T08:15:32.630Z,-23729.47
2022-10-17T08:17:36.013Z,-23738.72
2022-10-17T08:19:40.350Z,-23725.84
2022-10-17T08:21:46.857Z,-23729.13
2022-10-17T08:23:49.491Z,-23731.50
2022-10-17T08:25:52.140Z,-23728.66
2022-10-17T08:27:54.775Z,-23725.38
2022-10-17T08:29:57.371Z,-23718.44
2022-10-17T08:32:01.425Z,-23728.19
2022-10-17T08:34:05.014Z,-23730.72
2022-10-17T08:36:09.082Z,-23741.41
2022-10-17T08:38:13.509Z,-23760.44
2022-10-17T08:40:20.438Z,-23778.97
2022-10-17T08:42:42.731Z,-23778.19
2022-10-17T08:44:52.864Z,-23796.56
2022-10-17T08:47:00.474Z,-23832.81
2022-10-17T08:49:10.038Z,-23825.91
2022-10-17T08:51:18.222Z,-23819.63
2022-10-17T08:53:25.902Z,-23843.00
2022-10-17T08:55:33.266Z,-23873.22
2022-10-17T08:57:36.070Z,-23852.53
2022-10-17T08:59:38.695Z,-23862.25
2022-10-17T09:01:47.043Z,-23873.06
2022-10-17T09:04:03.634Z,-23844.09
2022-10-17T09:06:20.500Z,-23864.59
2022-10-17T09:08:36.638Z,-23868.03
2022-10-17T09:10:52.163Z,-23844.41
2022-10-17T09:13:07.821Z,-23856.31
2022-10-17T09:15:41.608Z,-23858.19
2022-10-17T09:17:52.516Z,-23845.81
2022-10-17T09:20:03.190Z,-23884.78
2022-10-17T09:22:10.294Z,-23871.03
2022-10-17T09:24:18.959Z,-23858.03
2022-10-17T09:26:22.294Z,-23886.38
2022-10-17T09:28:30.300Z,-23944.03
2022-10-17T09:30:46.156Z,-23968.53
2022-10-17T09:32:49.352Z,-23951.38
2022-10-17T09:34:53.037Z,-23968.53
2022-10-17T09:36:56.123Z,-23885.13
2022-10-17T09:39:02.516Z,-23917.94
2022-10-17T09:41:39.279Z,-23911.06
2022-10-17T09:43:36.987Z,-23937.94
2022-10-17T09:45:47.138Z,-23880.41
2022-10-17T09:48:00.918Z,-23919.50
2022-10-17T09:50:04.796Z,-23901.53
2022-10-17T09:52:14.572Z,-23922.63
2022-10-17T09:54:23.268Z,-23903.09
2022-10-17T09:56:27.308Z,-23922.63
2022-10-17T09:58:41.635Z,-23914.19
2022-10-17T10:00:47.381Z,-23942.47
2022-10-17T10:02:50.050Z,-23896.38
2022-10-17T10:05:06.645Z,-23881.66
2022-10-17T10:07:13.212Z,-23850.97
2022-10-17T10:09:22.571Z,-23876.66
2022-10-17T10:11:45.089Z,-23868.22
2022-10-17T10:13:49.851Z,-23875.88
2022-10-17T10:15:52.533Z,-23899.50
2022-10-17T10:17:55.128Z,-23923.09
2022-10-17T10:19:57.779Z,-23950.28
2022-10-17T10:22:02.013Z,-23915.59
2022-10-17T10:24:07.630Z,-23890.44
2022-10-17T10:26:31.069Z,-23896.84
2022-10-17T10:28:36.126Z,-23887.31
2022-10-17T10:30:39.964Z,-23861.78
2022-10-17T10:32:48.264Z,-23885.75
2022-10-17T10:34:54.145Z,-23893.56
2022-10-17T10:37:02.022Z,-23856.00
2022-10-17T10:39:05.348Z,-23858.66
2022-10-17T10:41:10.084Z,-23848.78
2022-10-17T10:43:25.016Z,-23842.03
2022-10-17T10:45:46.949Z,-23847.53
2022-10-17T10:47:53.409Z,-23859.28
2022-10-17T10:50:16.860Z,-23860.84
2022-10-17T10:52:28.416Z,-23861.16
2022-10-17T10:54:35.522Z,-23859.13
2022-10-17T10:56:39.963Z,-23854.72
2022-10-17T10:58:52.573Z,-23851.28
2022-10-17T11:00:57.508Z,-23853.63
2022-10-17T11:03:10.583Z,-23849.72
2022-10-17T11:05:21.882Z,-23853.78
2022-10-17T11:07:29.280Z,-23858.97
2022-10-17T11:09:47.561Z,-23868.50
2022-10-17T11:11:53.537Z,-23869.47
2022-10-17T11:14:01.433Z,-23862.88
2022-10-17T11:16:22.828Z,-23854.09
2022-10-17T11:18:29.219Z,-23872.13
2022-10-17T11:20:35.215Z,-23875.09
2022-10-17T11:22:43.165Z,-23875.41
2022-10-17T11:24:56.938Z,-23883.22
2022-10-17T11:27:01.685Z,-23891.53
2022-10-17T11:29:08.101Z,-23886.53
2022-10-17T11:31:14.479Z,-23892.31
2022-10-17T11:33:21.407Z,-23903.56
2022-10-17T11:35:28.838Z,-23910.59
2022-10-17T11:37:35.271Z,-23916.22
2022-10-17T11:41:55.447Z,-23922.31
2022-10-17T11:44:02.469Z,-23925.75
2022-10-17T11:46:15.955Z,-23926.88
2022-10-17T11:48:23.235Z,-23928.09
2022-10-17T11:52:57.080Z,-23930.75
2022-10-17T11:55:04.755Z,-23935.13
2022-10-17T11:57:35.966Z,-23935.75
2022-10-17T11:59:55.337Z,-23938.25
2022-10-17T12:02:06.118Z,-23943.41
2022-10-17T12:04:25.931Z,-23952.31
2022-10-17T12:06:44.051Z,-23946.53
2022-10-17T12:08:53.901Z,-23959.81
2022-10-17T12:11:01.871Z,-23959.81
2022-10-17T12:13:38.093Z,-23971.03
2022-10-17T12:15:44.674Z,-23970.72
2022-10-17T12:17:56.723Z,-23982.88
2022-10-17T12:20:27.211Z,-23983.19
2022-10-17T12:22:29.874Z,-23983.03
2022-10-17T12:24:40.187Z,-23991.16
2022-10-17T12:26:42.852Z,-23987.88
2022-10-17T12:28:47.543Z,-23990.38
2022-10-17T12:30:52.816Z,-23987.72
2022-10-17T12:33:08.200Z,-23986.31
2022-10-17T12:35:21.711Z,-23972.28
2022-10-17T12:38:01.864Z,-23986.16
2022-10-17T12:40:05.287Z,-23986.63
2022-10-17T12:42:31.669Z,-23983.81
2022-10-17T12:44:38.724Z,-23972.75
2022-10-17T12:46:51.935Z,-23958.88
2022-10-17T12:49:04.622Z,-23969.94
2022-10-17T12:53:41.480Z,-23988.97
2022-10-17T12:55:44.124Z,-23986.31
2022-10-17T12:57:56.526Z,-23991.16
2022-10-17T12:59:59.684Z,-24006.25
2022-10-17T13:02:04.445Z,-23995.66
2022-10-17T13:04:11.677Z,-23996.91
2022-10-17T13:06:20.923Z,-23980.56
2022-10-17T13:08:29.620Z,-23993.63
2022-10-17T13:10:35.854Z,-23988.66
2022-10-17T13:12:41.335Z,-24000.34
2022-10-17T13:14:46.987Z,-23995.50
2022-10-17T13:16:54.916Z,-23992.56
2022-10-17T13:18:58.357Z,-23991.63
2022-10-17T13:21:04.828Z,-23995.97
2022-10-17T13:23:07.457Z,-23993.78
2022-10-17T13:25:15.757Z,-24002.53
2022-10-17T13:27:25.574Z,-24000.66
2022-10-17T13:29:30.827Z,-23980.56
2022-10-17T13:31:35.194Z,-23992.72
2022-10-17T13:33:40.461Z,-23994.13
2022-10-17T13:38:08.058Z,-23995.03
2022-10-17T13:40:44.037Z,-23987.25
2022-10-17T13:42:42.289Z,-23968.84
2022-10-17T13:44:45.184Z,-23933.88
2022-10-17T13:46:48.039Z,-23949.97
2022-10-17T13:48:50.723Z,-23928.88
2022-10-17T13:50:57.197Z,-23917.78
2022-10-17T13:53:27.517Z,-23906.38
2022-10-17T13:55:30.111Z,-23899.81
2022-10-17T13:57:33.322Z,-23900.44
2022-10-17T13:59:41.259Z,-23904.19
2022-10-17T14:01:44.069Z,-23902.16
2022-10-17T14:03:49.882Z,-23901.06
2022-10-17T14:06:09.486Z,-23903.09
2022-10-17T14:08:22.811Z,-23896.53
2022-10-17T14:10:31.694Z,-23894.50
2022-10-17T14:12:35.038Z,-23896.38
2022-10-17T14:15:05.192Z,-23907.00
2022-10-17T14:17:02.327Z,-23899.81
2022-10-17T14:19:06.163Z,-23907.16
2022-10-17T14:23:34.509Z,-23888.56
2022-10-17T14:25:41.635Z,-23890.44
2022-10-17T14:27:58.021Z,-23887.78
2022-10-17T14:30:03.647Z,-23884.78
2022-10-17T14:32:09.446Z,-23893.09
2022-10-17T14:34:23.138Z,-23887.94
2022-10-17T14:36:34.880Z,-23893.41
2022-10-17T14:38:37.753Z,-23895.44
2022-10-17T14:40:50.897Z,-23896.38
2022-10-17T14:42:55.501Z,-23902.78
2022-10-17T14:45:04.699Z,-23890.44
2022-10-17T14:47:38.081Z,-23886.81
2022-10-17T14:49:37.305Z,-23888.56
2022-10-17T14:51:50.508Z,-23889.19
2022-10-17T14:54:06.149Z,-23879.63
2022-10-17T14:56:23.828Z,-23877.91
2022-10-17T14:58:28.681Z,-23881.19
2022-10-17T15:00:31.337Z,-23883.69
2022-10-17T15:02:34.300Z,-23871.50
2022-10-17T15:04:37.086Z,-23874.94
2022-10-17T15:06:40.508Z,-23880.72
2022-10-17T15:10:51.890Z,-23875.88
2022-10-17T15:12:59.369Z,-23876.19
2022-10-17T15:15:12.559Z,-23874.31
2022-10-17T15:17:18.425Z,-23868.69
2022-10-17T15:19:21.039Z,-23864.28
2022-10-17T15:21:38.165Z,-23865.84
2022-10-17T15:23:43.655Z,-23866.63
2022-10-17T15:25:46.401Z,-23863.66
2022-10-17T15:27:49.044Z,-23862.25
2022-10-17T15:29:53.836Z,-23862.25
2022-10-17T15:31:56.420Z,-23866.31
2022-10-17T15:33:59.003Z,-23862.25
2022-10-17T15:36:01.625Z,-23859.13
2022-10-17T15:38:07.454Z,-23850.03
2022-10-17T15:40:14.897Z,-23858.50
2022-10-17T15:42:17.510Z,-23856.78
2022-10-17T15:44:20.158Z,-23857.72
2022-10-17T15:46:26.300Z,-23859.44
2022-10-17T15:48:32.012Z,-23850.97
2022-10-17T15:50:34.619Z,-23852.53
2022-10-17T15:52:37.183Z,-23850.66
2022-10-17T15:54:39.855Z,-23842.81
2022-10-17T15:56:43.347Z,-23844.09
2022-10-17T15:58:46.079Z,-23846.75
2022-10-17T16:00:49.661Z,-23835.94
2022-10-17T16:02:53.668Z,-23833.13
2022-10-17T16:04:56.281Z,-23839.38
2022-10-17T16:06:58.901Z,-23826.84
2022-10-17T16:09:01.520Z,-23819.63
2022-10-17T16:11:04.154Z,-23819.78
2022-10-17T16:13:07.118Z,-23819.63
2022-10-17T16:15:14.939Z,-23819.16
2022-10-17T16:17:18.484Z,-23818.69
2022-10-17T16:19:23.592Z,-23818.06
2022-10-17T16:21:28.628Z,-23810.69
2022-10-17T16:23:31.254Z,-23812.41
2022-10-17T16:25:34.013Z,-23804.88
2022-10-17T16:27:37.653Z,-23797.03
2022-10-17T16:29:40.279Z,-23798.91
2022-10-17T16:31:44.891Z,-23790.75
2022-10-17T16:33:48.222Z,-23780.53
2022-10-17T16:35:52.314Z,-23776.00
2022-10-17T16:37:56.360Z,-23770.34
2022-10-17T16:39:59.267Z,-23768.75
2022-10-17T16:42:01.896Z,-23776.31
2022-10-17T16:44:06.477Z,-23776.63
2022-10-17T16:46:09.303Z,-23776.63
2022-10-17T16:48:12.195Z,-23780.06
2022-10-17T16:50:15.491Z,-23783.84
2022-10-17T16:52:19.726Z,-23780.53
2022-10-17T16:54:22.332Z,-23773.78
2022-10-17T16:56:29.606Z,-23780.38
2022-10-17T16:58:32.386Z,-23783.53
2022-10-17T17:00:35.868Z,-23783.22
2022-10-17T17:02:38.768Z,-23778.81
2022-10-17T17:04:42.809Z,-23776.13
2022-10-17T17:06:46.593Z,-23774.72
2022-10-17T17:08:51.132Z,-23772.84
2022-10-17T17:10:55.353Z,-23769.69
2022-10-17T17:12:58.231Z,-23768.75
2022-10-17T17:15:00.955Z,-23773.78
2022-10-17T17:17:03.586Z,-23768.59
2022-10-17T17:19:08.889Z,-23770.66
2022-10-17T17:21:14.951Z,-23770.97
2022-10-17T17:23:17.582Z,-23768.13
2022-10-17T17:25:21.963Z,-23767.03
2022-10-17T17:27:25.174Z,-23765.94
2022-10-17T17:29:28.210Z,-23758.53
2022-10-17T17:31:32.535Z,-23762.94
2022-10-17T17:33:35.150Z,-23763.56
2022-10-17T17:35:40.829Z,-23761.69
2022-10-17T17:37:43.504Z,-23759.19
2022-10-17T17:39:46.129Z,-23757.75
2022-10-17T17:41:50.299Z,-23760.59
2022-10-17T17:43:53.090Z,-23762.16
2022-10-17T17:45:56.538Z,-23759.34
2022-10-17T17:47:59.105Z,-23760.59
2022-10-17T17:50:03.189Z,-23761.84
2022-10-17T17:52:05.948Z,-23760.44
2022-10-17T17:54:11.771Z,-23759.97
2022-10-17T17:56:16.735Z,-23762.16
2022-10-17T17:58:20.694Z,-23763.09
2022-10-17T18:00:23.359Z,-23761.53
2022-10-17T18:02:26.765Z,-23759.66
2022-10-17T18:04:29.571Z,-23760.44
2022-10-17T18:06:36.022Z,-23757.44
2022-10-17T18:08:39.583Z,-23756.34
2022-10-17T18:10:42.343Z,-23755.56
2022-10-17T18:12:46.530Z,-23756.81
2022-10-17T18:14:50.459Z,-23753.38
2022-10-17T18:16:53.205Z,-23746.75
2022-10-17T18:19:04.053Z,-23745.50
2022-10-17T18:21:11.790Z,-23744.41
2022-10-17T18:23:14.362Z,-23743.91
2022-10-17T18:25:17.233Z,-23742.03
2022-10-17T18:27:19.872Z,-23739.22
2022-10-17T18:29:23.448Z,-23740.63
2022-10-17T18:31:32.066Z,-23741.72
2022-10-17T18:33:35.607Z,-23738.41
2022-10-17T18:35:38.182Z,-23738.25
2022-10-17T18:39:44.962Z,-23734.50
2022-10-17T18:41:47.649Z,-23735.75
2022-10-17T18:43:51.775Z,-23736.69
2022-10-17T18:45:57.377Z,-23734.66
2022-10-17T18:48:01.398Z,-23740.47
2022-10-17T18:50:04.353Z,-23739.69
2022-10-17T18:52:06.996Z,-23735.13
2022-10-17T18:54:14.269Z,-23733.38
2022-10-17T18:56:17.429Z,-23731.97
2022-10-17T18:58:21.622Z,-23728.34
2022-10-17T19:00:24.215Z,-23728.66
2022-10-17T19:02:27.788Z,-23724.09
2022-10-17T19:04:31.839Z,-23720.00
2022-10-17T19:06:35.162Z,-23718.44
2022-10-17T19:08:39.000Z,-23717.03
2022-10-17T19:10:42.431Z,-23714.50
2022-10-17T19:12:45.064Z,-23717.19
2022-10-17T19:14:49.952Z,-23707.25
2022-10-17T19:16:52.768Z,-23706.31
2022-10-17T19:18:57.352Z,-23706.47
2022-10-17T19:21:04.415Z,-23701.75
2022-10-17T19:23:06.995Z,-23699.38
2022-10-17T19:25:10.504Z,-23703.00
2022-10-17T19:27:13.095Z,-23702.38
2022-10-17T19:29:16.986Z,-23702.38
2022-10-17T19:31:25.422Z,-23698.13
2022-10-17T19:33:29.561Z,-23697.34
2022-10-17T19:35:32.209Z,-23699.25
2022-10-17T19:37:36.137Z,-23696.09
2022-10-17T19:39:39.048Z,-23696.09
2022-10-17T19:41:42.291Z,-23696.41
2022-10-17T19:43:45.599Z,-23693.88
2022-10-17T19:45:55.838Z,-23685.53
2022-10-17T19:47:58.804Z,-23687.88
2022-10-17T19:50:01.612Z,-23690.41
2022-10-17T19:52:04.419Z,-23685.53
2022-10-17T19:54:08.401Z,-23681.28
2022-10-17T19:56:11.575Z,-23680.16
2022-10-17T19:58:14.317Z,-23679.53
2022-10-17T20:00:17.070Z,-23677.50
2022-10-17T20:02:19.704Z,-23676.56
2022-10-17T20:04:23.951Z,-23676.84
2022-10-17T20:06:27.207Z,-23678.75
2022-10-17T20:08:29.775Z,-23676.84
2022-10-17T20:10:34.278Z,-23679.06
2022-10-17T20:12:36.922Z,-23677.19
2022-10-17T20:14:41.103Z,-23678.91
2022-10-17T20:16:44.688Z,-23682.22
2022-10-17T20:18:47.338Z,-23684.41
2022-10-17T20:20:49.967Z,-23688.22
2022-10-17T20:22:52.626Z,-23687.41
2022-10-17T20:24:55.387Z,-23695.78
2022-10-17T20:26:59.359Z,-23692.78
2022-10-17T20:29:02.808Z,-23692.63
2022-10-17T20:31:07.306Z,-23692.31
2022-10-17T20:33:09.888Z,-23703.97
2022-10-17T20:35:12.588Z,-23703.00
2022-10-17T20:37:15.524Z,-23701.59
2022-10-17T20:39:20.297Z,-23699.25
2022-10-17T20:41:23.348Z,-23698.44
2022-10-17T20:43:27.299Z,-23698.13
2022-10-17T20:45:43.778Z,-23699.88
2022-10-17T20:47:54.052Z,-23703.63
2022-10-17T20:49:56.878Z,-23703.63
2022-10-17T20:52:00.545Z,-23708.06
2022-10-17T20:54:03.690Z,-23700.19
2022-10-17T20:56:08.881Z,-23696.41
2022-10-17T20:58:13.236Z,-23692.00
2022-10-17T21:00:17.588Z,-23691.84
2022-10-17T21:02:20.274Z,-23690.41
2022-10-17T21:06:47.528Z,-23681.91
2022-10-17T21:08:50.708Z,-23680.47
2022-10-17T21:10:53.321Z,-23677.50
2022-10-17T21:12:56.218Z,-23677.19
2022-10-17T21:14:59.291Z,-23675.44
2022-10-17T21:17:05.228Z,-23674.81
2022-10-17T21:19:08.186Z,-23673.72
2022-10-17T21:21:13.599Z,-23673.09
2022-10-17T21:23:16.218Z,-23665.19
2022-10-17T21:25:18.869Z,-23665.34
2022-10-17T21:27:21.516Z,-23664.56
2022-10-17T21:29:24.869Z,-23663.63
2022-10-17T21:31:28.675Z,-23660.63
2022-10-17T21:33:32.600Z,-23662.03
2022-10-17T21:35:35.231Z,-23661.25
2022-10-17T21:37:37.806Z,-23662.22
2022-10-17T21:39:40.475Z,-23668.03
2022-10-17T21:41:44.165Z,-23667.72
2022-10-17T21:43:47.097Z,-23668.19
2022-10-17T21:45:49.704Z,-23668.97
2022-10-17T21:48:11.715Z,-23665.69
2022-10-17T21:50:16.389Z,-23659.06
2022-10-17T21:52:18.984Z,-23656.06
2022-10-17T21:54:23.876Z,-23655.59
2022-10-17T21:56:30.661Z,-23654.63
2022-10-17T21:58:34.255Z,-23651.94
2022-10-17T22:00:36.825Z,-23653.69
2022-10-17T22:02:39.387Z,-23650.69
2022-10-17T22:04:41.991Z,-23651.47
2022-10-17T22:06:47.408Z,-23652.91
2022-10-17T22:08:50.461Z,-23655.09
2022-10-17T22:10:53.241Z,-23651.94
2022-10-17T22:12:55.844Z,-23651.31
2022-10-17T22:14:58.427Z,-23650.38
2022-10-17T22:17:01.475Z,-23648.00
2022-10-17T22:19:06.877Z,-23647.53
2022-10-17T22:21:13.095Z,-23647.22
2022-10-17T22:23:17.137Z,-23646.28
2022-10-17T22:25:19.824Z,-23644.53
2022-10-17T22:27:22.450Z,-23646.44
2022-10-17T22:29:25.152Z,-23645.78
2022-10-17T22:31:28.044Z,-23643.59
2022-10-17T22:33:32.579Z,-23643.44
2022-10-17T22:35:35.202Z,-23645.31
2022-10-17T22:37:37.832Z,-23645.16
2022-10-17T22:39:41.827Z,-23644.38
2022-10-17T22:41:44.605Z,-23644.69
2022-10-17T22:43:47.257Z,-23644.06
2022-10-17T22:45:53.956Z,-23637.75
2022-10-17T22:47:57.004Z,-23638.38
2022-10-17T22:49:59.559Z,-23640.75
2022-10-17T22:52:02.127Z,-23639.34
2022-10-17T22:54:04.874Z,-23641.53
2022-10-17T22:56:11.594Z,-23640.75
2022-10-17T22:58:14.171Z,-23640.44
2022-10-17T23:00:17.870Z,-23640.59
2022-10-17T23:02:20.543Z,-23637.44
2022-10-17T23:04:23.164Z,-23637.75
2022-10-17T23:06:25.844Z,-23638.38
2022-10-17T23:08:29.433Z,-23638.69
2022-10-17T23:10:32.152Z,-23633.97
2022-10-17T23:12:36.106Z,-23628.91
2022-10-17T23:14:38.811Z,-23631.13
2022-10-17T23:16:41.432Z,-23632.06
2022-10-17T23:18:44.610Z,-23631.28
2022-10-17T23:20:47.642Z,-23631.13
2022-10-17T23:22:50.235Z,-23632.56
2022-10-17T23:24:53.029Z,-23633.50
2022-10-17T23:26:55.763Z,-23632.06
2022-10-17T23:28:59.754Z,-23631.13
2022-10-17T23:31:10.573Z,-23624.81
2022-10-17T23:33:14.314Z,-23623.22
2022-10-17T23:35:16.995Z,-23627.97
2022-10-17T23:37:19.903Z,-23637.13
2022-10-17T23:39:22.568Z,-23633.50
2022-10-17T23:41:25.209Z,-23633.34
2022-10-17T23:43:28.255Z,-23628.44
2022-10-17T23:45:34.753Z,-23625.75
2022-10-17T23:47:39.631Z,-23621.97
2022-10-17T23:49:42.278Z,-23622.59
2022-10-17T23:51:44.977Z,-23622.59
2022-10-17T23:53:47.685Z,-23620.72
2022-10-17T23:55:50.583Z,-23620.09
2022-10-17T23:57:53.252Z,-23615.81
2022-10-17T23:59:56.376Z,-23614.72
